createdAt,value
2019-03-31T00:00:29.885Z,99973.55
2019-03-31T00:01:07.974Z,99976.16
2019-03-31T00:01:34.052Z,99973.59
2019-03-31T00:02:05.265Z,99972.73
2019-03-31T00:02:36.474Z,99977.94
2019-03-31T00:03:07.826Z,99974.47
2019-03-31T00:03:39.038Z,99976.64
2019-03-31T00:04:10.250Z,99972.73
2019-03-31T00:04:41.446Z,99971.45
2019-03-31T00:05:12.647Z,99966.71
2019-03-31T00:05:43.895Z,99968.86
2019-03-31T00:06:15.095Z,99968.02
2019-03-31T00:06:46.310Z,99967.14
2019-03-31T00:07:17.530Z,99968.43
2019-03-31T00:07:48.731Z,99964.55
2019-03-31T00:08:19.958Z,99968.86
2019-03-31T00:08:51.190Z,99971.89
2019-03-31T00:09:22.430Z,99966.71
2019-03-31T00:09:53.682Z,99968.88
2019-03-31T00:10:24.884Z,99969.30
2019-03-31T00:10:56.089Z,99968.41
2019-03-31T00:11:27.307Z,99965.83
2019-03-31T00:11:58.510Z,99970.14
2019-03-31T00:12:29.796Z,99960.67
2019-03-31T00:13:01.013Z,99969.28
2019-03-31T00:13:32.215Z,99963.66
2019-03-31T00:14:03.426Z,99961.54
2019-03-31T00:14:34.651Z,99968.41
2019-03-31T00:15:05.859Z,99958.05
2019-03-31T00:15:37.071Z,99959.78
2019-03-31T00:16:08.279Z,99962.84
2019-03-31T00:16:39.569Z,99959.81
2019-03-31T00:17:10.785Z,99958.93
2019-03-31T00:17:41.996Z,99961.52
2019-03-31T00:18:13.234Z,99967.58
2019-03-31T00:18:44.433Z,99957.22
2019-03-31T00:19:15.742Z,99962.82
2019-03-31T00:19:46.949Z,99963.23
2019-03-31T00:20:18.199Z,99958.95
2019-03-31T00:20:49.498Z,99966.25
2019-03-31T00:21:20.731Z,99957.20
2019-03-31T00:21:51.950Z,99958.52
2019-03-31T00:22:23.179Z,99958.95
2019-03-31T00:22:54.392Z,99958.05
2019-03-31T00:23:25.581Z,99955.47
2019-03-31T00:23:56.786Z,99933.53
2019-03-31T00:24:28.017Z,99951.14
2019-03-31T00:24:59.229Z,99959.36
2019-03-31T00:25:30.441Z,99955.03
2019-03-31T00:26:01.690Z,99954.59
2019-03-31T00:26:32.901Z,99952.90
2019-03-31T00:27:04.097Z,99951.58
2019-03-31T00:27:35.326Z,99947.30
2019-03-31T00:28:06.531Z,99950.30
2019-03-31T00:28:37.742Z,99953.34
2019-03-31T00:29:08.956Z,99948.16
2019-03-31T00:29:40.193Z,99949.02
2019-03-31T00:30:11.459Z,99947.70
2019-03-31T00:30:42.675Z,99946.86
2019-03-31T00:31:22.015Z,99942.97
2019-03-31T00:31:46.832Z,99945.55
2019-03-31T00:32:18.047Z,99942.95
2019-03-31T00:32:49.313Z,99943.39
2019-03-31T00:33:20.515Z,99945.13
2019-03-31T00:33:51.769Z,99939.08
2019-03-31T00:34:22.958Z,99937.34
2019-03-31T00:34:54.162Z,99933.46
2019-03-31T00:35:25.392Z,99933.91
2019-03-31T00:35:56.580Z,99932.17
2019-03-31T00:36:27.804Z,99932.60
2019-03-31T00:36:59.054Z,99933.05
2019-03-31T00:37:30.273Z,99935.66
2019-03-31T00:38:01.501Z,99924.84
2019-03-31T00:38:32.714Z,99933.51
2019-03-31T00:39:03.911Z,99932.63
2019-03-31T00:39:35.133Z,99932.19
2019-03-31T00:40:06.337Z,99929.61
2019-03-31T00:40:37.546Z,99936.49
2019-03-31T00:41:08.752Z,99932.63
2019-03-31T00:41:39.971Z,99927.89
2019-03-31T00:42:11.183Z,99927.86
2019-03-31T00:42:42.392Z,99925.26
2019-03-31T00:43:13.606Z,99929.56
2019-03-31T00:43:44.866Z,99921.78
2019-03-31T00:44:16.077Z,99923.92
2019-03-31T00:44:47.283Z,99925.20
2019-03-31T00:45:18.518Z,99923.46
2019-03-31T00:45:49.723Z,99916.55
2019-03-31T00:46:20.933Z,99919.98
2019-03-31T00:46:52.148Z,99917.80
2019-03-31T00:47:23.363Z,99920.83
2019-03-31T00:47:54.648Z,99917.82
2019-03-31T00:48:25.842Z,99918.23
2019-03-31T00:48:57.050Z,99921.24
2019-03-31T00:49:28.258Z,99915.65
2019-03-31T00:49:59.473Z,99918.67
2019-03-31T00:50:30.792Z,99916.52
2019-03-31T00:51:01.976Z,99913.49
2019-03-31T00:51:33.184Z,99905.28
2019-03-31T00:52:04.398Z,99907.88
2019-03-31T00:52:35.613Z,99906.56
2019-03-31T00:53:06.873Z,99904.41
2019-03-31T00:53:38.118Z,99901.82
2019-03-31T00:54:09.368Z,99909.16
2019-03-31T00:54:40.577Z,99906.13
2019-03-31T00:55:11.814Z,99900.95
2019-03-31T00:55:43.100Z,99907.00
2019-03-31T00:56:14.318Z,99905.30
2019-03-31T00:56:45.528Z,99904.88
2019-03-31T00:57:16.730Z,99901.45
2019-03-31T00:57:47.921Z,99909.22
2019-03-31T00:58:19.144Z,99904.91
2019-03-31T00:58:50.398Z,99900.17
2019-03-31T00:59:21.600Z,99905.37
2019-03-31T00:59:52.849Z,99903.64
2019-03-31T01:00:24.078Z,99903.18
2019-03-31T01:00:55.288Z,99899.75
2019-03-31T01:01:36.237Z,99899.33
2019-03-31T01:01:59.450Z,99900.25
2019-03-31T01:02:30.647Z,99899.84
2019-03-31T01:03:01.863Z,99893.83
2019-03-31T01:03:33.066Z,99892.55
2019-03-31T01:04:04.288Z,99897.35
2019-03-31T01:04:35.510Z,99893.92
2019-03-31T01:05:06.756Z,99895.20
2019-03-31T01:05:37.976Z,99896.07
2019-03-31T01:06:09.178Z,99900.83
2019-03-31T01:06:40.374Z,99892.20
2019-03-31T01:07:11.579Z,99892.22
2019-03-31T01:07:42.790Z,99892.67
2019-03-31T01:08:13.990Z,99893.97
2019-03-31T01:08:45.211Z,99890.09
2019-03-31T01:09:16.421Z,99889.22
2019-03-31T01:09:47.639Z,99892.25
2019-03-31T01:10:18.903Z,99888.81
2019-03-31T01:10:50.112Z,99893.55
2019-03-31T01:11:21.331Z,99886.23
2019-03-31T01:11:52.586Z,99894.44
2019-03-31T01:12:23.795Z,99895.72
2019-03-31T01:12:54.988Z,99890.98
2019-03-31T01:13:26.187Z,99895.29
2019-03-31T01:13:57.395Z,99885.83
2019-03-31T01:14:28.635Z,99887.13
2019-03-31T01:14:59.852Z,99892.71
2019-03-31T01:15:31.073Z,99889.28
2019-03-31T01:16:02.276Z,99885.84
2019-03-31T01:16:33.488Z,99891.02
2019-03-31T01:17:04.734Z,99891.45
2019-03-31T01:17:35.933Z,99887.56
2019-03-31T01:18:07.143Z,99888.44
2019-03-31T01:18:38.375Z,99888.45
2019-03-31T01:19:09.595Z,99889.71
2019-03-31T01:19:40.802Z,99887.56
2019-03-31T01:20:12.020Z,99894.45
2019-03-31T01:20:43.238Z,99891.03
2019-03-31T01:21:14.522Z,99891.46
2019-03-31T01:21:45.707Z,99888.88
2019-03-31T01:22:16.913Z,99884.58
2019-03-31T01:22:48.126Z,99886.30
2019-03-31T01:23:19.321Z,99884.56
2019-03-31T01:23:50.528Z,99882.84
2019-03-31T01:24:21.746Z,99881.99
2019-03-31T01:24:52.987Z,99882.42
2019-03-31T01:25:24.184Z,99879.41
2019-03-31T01:25:55.397Z,99882.41
2019-03-31T01:26:26.608Z,99879.83
2019-03-31T01:26:57.835Z,99883.25
2019-03-31T01:27:29.061Z,99882.83
2019-03-31T01:28:00.275Z,99883.66
2019-03-31T01:28:31.471Z,99887.55
2019-03-31T01:29:02.696Z,99888.41
2019-03-31T01:29:33.954Z,99886.23
2019-03-31T01:30:05.166Z,99884.93
2019-03-31T01:30:36.366Z,99887.93
2019-03-31T01:31:07.590Z,99884.95
2019-03-31T01:31:49.717Z,99884.92
2019-03-31T01:32:11.731Z,99886.63
2019-03-31T01:32:42.938Z,99881.88
2019-03-31T01:33:14.156Z,99878.87
2019-03-31T01:33:45.362Z,99879.28
2019-03-31T01:34:16.578Z,99879.73
2019-03-31T01:34:47.811Z,99871.11
2019-03-31T01:35:19.022Z,99877.56
2019-03-31T01:35:50.268Z,99879.27
2019-03-31T01:36:21.472Z,99874.98
2019-03-31T01:36:52.675Z,99872.81
2019-03-31T01:37:23.881Z,99871.97
2019-03-31T01:37:55.082Z,99871.53
2019-03-31T01:38:26.292Z,99868.95
2019-03-31T01:38:57.546Z,99872.81
2019-03-31T01:39:28.777Z,99870.23
2019-03-31T01:39:59.984Z,99874.55
2019-03-31T01:40:31.192Z,99872.82
2019-03-31T01:41:02.407Z,99872.80
2019-03-31T01:41:33.640Z,99879.66
2019-03-31T01:42:04.850Z,99876.20
2019-03-31T01:42:36.063Z,99878.80
2019-03-31T01:43:07.337Z,99878.34
2019-03-31T01:43:38.614Z,99880.48
2019-03-31T01:44:09.858Z,99876.18
2019-03-31T01:44:41.067Z,99877.50
2019-03-31T01:45:12.274Z,99860.25
2019-03-31T01:45:43.503Z,99879.20
2019-03-31T01:46:14.725Z,99882.66
2019-03-31T01:46:45.963Z,99878.77
2019-03-31T01:47:17.237Z,99881.78
2019-03-31T01:47:48.450Z,99884.77
2019-03-31T01:48:19.656Z,99883.92
2019-03-31T01:48:50.892Z,99882.20
2019-03-31T01:49:22.124Z,99589.45
2019-03-31T01:49:53.346Z,99878.33
2019-03-31T01:50:24.545Z,99880.50
2019-03-31T01:50:55.824Z,99877.47
2019-03-31T01:51:27.094Z,99883.52
2019-03-31T01:51:58.383Z,99877.91
2019-03-31T01:52:29.631Z,99880.48
2019-03-31T01:53:00.838Z,99880.49
2019-03-31T01:53:32.079Z,99880.94
2019-03-31T01:54:03.290Z,99877.91
2019-03-31T01:54:34.511Z,99886.06
2019-03-31T01:55:05.728Z,99875.31
2019-03-31T01:55:36.922Z,99876.57
2019-03-31T01:56:08.146Z,99873.97
2019-03-31T01:56:39.366Z,99873.94
2019-03-31T01:57:10.644Z,99876.95
2019-03-31T01:57:41.841Z,99872.20
2019-03-31T01:58:13.079Z,99871.80
2019-03-31T01:58:44.291Z,99871.80
2019-03-31T01:59:15.518Z,99870.03
2019-03-31T01:59:46.796Z,99870.89
2019-03-31T02:00:18.042Z,99871.73
2019-03-31T02:00:49.243Z,99868.72
2019-03-31T02:01:20.478Z,99866.58
2019-03-31T02:02:03.497Z,99870.86
2019-03-31T02:02:24.679Z,99866.14
2019-03-31T02:02:55.900Z,99876.05
2019-03-31T02:03:27.115Z,99869.16
2019-03-31T02:03:58.322Z,99872.62
2019-03-31T02:04:29.537Z,99864.88
2019-03-31T02:05:00.738Z,99868.30
2019-03-31T02:05:31.959Z,99864.47
2019-03-31T02:06:03.176Z,99864.95
2019-03-31T02:06:34.445Z,99863.67
2019-03-31T02:07:05.759Z,99870.18
2019-03-31T02:07:36.985Z,99865.89
2019-03-31T02:08:08.261Z,99868.05
2019-03-31T02:08:39.463Z,99867.64
2019-03-31T02:09:10.678Z,99864.21
2019-03-31T02:09:41.935Z,99865.96
2019-03-31T02:10:13.156Z,99866.37
2019-03-31T02:10:44.358Z,99858.66
2019-03-31T02:11:15.634Z,99861.66
2019-03-31T02:11:46.807Z,99867.70
2019-03-31T02:12:18.073Z,99867.27
2019-03-31T02:12:49.254Z,99862.52
2019-03-31T02:13:20.531Z,99869.81
2019-03-31T02:13:51.730Z,99870.67
2019-03-31T02:14:22.945Z,99872.41
2019-03-31T02:14:54.203Z,99871.11
2019-03-31T02:15:25.427Z,99870.23
2019-03-31T02:15:56.615Z,99873.70
2019-03-31T02:16:27.829Z,99868.09
2019-03-31T02:16:59.039Z,99867.23
2019-03-31T02:17:30.276Z,99865.10
2019-03-31T02:18:01.500Z,99868.12
2019-03-31T02:18:32.753Z,99862.09
2019-03-31T02:19:04.002Z,99866.78
2019-03-31T02:19:35.209Z,99860.73
2019-03-31T02:20:06.427Z,99860.71
2019-03-31T02:20:37.633Z,99861.98
2019-03-31T02:21:08.837Z,99865.41
2019-03-31T02:21:40.057Z,99860.22
2019-03-31T02:22:11.261Z,99862.36
2019-03-31T02:22:42.486Z,99861.48
2019-03-31T02:23:13.754Z,99861.48
2019-03-31T02:23:44.974Z,99864.91
2019-03-31T02:24:16.171Z,99863.63
2019-03-31T02:24:47.432Z,99857.18
2019-03-31T02:25:18.694Z,99865.35
2019-03-31T02:25:49.903Z,99870.92
2019-03-31T02:26:21.106Z,99867.48
2019-03-31T02:26:52.309Z,99869.66
2019-03-31T02:27:23.517Z,99873.12
2019-03-31T02:27:54.727Z,99870.95
2019-03-31T02:28:25.938Z,99868.80
2019-03-31T02:28:57.165Z,99865.38
2019-03-31T02:29:28.384Z,99862.83
2019-03-31T02:29:59.588Z,99858.08
2019-03-31T02:30:30.864Z,99855.94
2019-03-31T02:31:02.076Z,99853.36
2019-03-31T02:31:33.285Z,99850.32
2019-03-31T02:32:22.134Z,99850.73
2019-03-31T02:32:37.463Z,99849.00
2019-03-31T02:33:08.648Z,99843.00
2019-03-31T02:33:39.868Z,99853.75
2019-03-31T02:34:11.090Z,99856.80
2019-03-31T02:34:42.322Z,99855.50
2019-03-31T02:35:13.595Z,99861.95
2019-03-31T02:35:44.923Z,99858.50
2019-03-31T02:36:16.135Z,99863.21
2019-03-31T02:36:47.477Z,99866.64
2019-03-31T02:37:18.698Z,99867.11
2019-03-31T02:37:49.928Z,99857.17
2019-03-31T02:38:21.134Z,99858.44
2019-03-31T02:38:52.354Z,99851.99
2019-03-31T02:39:23.599Z,99855.45
2019-03-31T02:39:54.805Z,99846.02
2019-03-31T02:40:26.032Z,99851.58
2019-03-31T02:40:57.273Z,99847.72
2019-03-31T02:41:28.489Z,99848.19
2019-03-31T02:41:59.722Z,99846.05
2019-03-31T02:42:30.937Z,99847.77
2019-03-31T02:43:02.164Z,99848.64
2019-03-31T02:43:33.392Z,99846.97
2019-03-31T02:44:04.589Z,99843.98
2019-03-31T02:44:35.810Z,99845.70
2019-03-31T02:45:07.121Z,99851.70
2019-03-31T02:45:38.323Z,99852.14
2019-03-31T02:46:09.565Z,99849.56
2019-03-31T02:46:40.778Z,99857.74
2019-03-31T02:47:12.025Z,99855.58
2019-03-31T02:47:43.248Z,99856.84
2019-03-31T02:48:14.461Z,99856.80
2019-03-31T02:48:45.674Z,99856.33
2019-03-31T02:49:16.937Z,99860.61
2019-03-31T02:49:48.164Z,99857.17
2019-03-31T02:50:19.385Z,99856.30
2019-03-31T02:50:50.601Z,99857.62
2019-03-31T02:51:21.891Z,99856.33
2019-03-31T02:51:53.103Z,99851.17
2019-03-31T02:52:24.398Z,99852.45
2019-03-31T02:52:55.602Z,99848.59
2019-03-31T02:53:26.810Z,99850.77
2019-03-31T02:53:58.060Z,99847.33
2019-03-31T02:54:29.288Z,99846.04
2019-03-31T02:55:00.658Z,99845.19
2019-03-31T02:55:31.875Z,99849.55
2019-03-31T02:56:03.108Z,99848.25
2019-03-31T02:56:34.310Z,99845.67
2019-03-31T02:57:05.584Z,99850.39
2019-03-31T02:57:36.909Z,99852.09
2019-03-31T02:58:08.102Z,99852.52
2019-03-31T02:58:39.334Z,99857.65
2019-03-31T02:59:10.514Z,99857.20
2019-03-31T02:59:41.723Z,99855.95
2019-03-31T03:00:12.952Z,99856.77
2019-03-31T03:00:44.165Z,99852.45
2019-03-31T03:01:15.374Z,99847.33
2019-03-31T03:01:46.600Z,99852.52
2019-03-31T03:02:17.900Z,99851.22
2019-03-31T03:02:49.156Z,99856.37
2019-03-31T03:03:20.365Z,99857.25
2019-03-31T03:03:51.640Z,99854.27
2019-03-31T03:04:22.900Z,99852.12
2019-03-31T03:04:54.138Z,99855.14
2019-03-31T03:05:25.403Z,99857.33
2019-03-31T03:05:56.619Z,99862.48
2019-03-31T03:06:27.844Z,99864.64
2019-03-31T03:06:59.043Z,99871.09
2019-03-31T03:07:30.270Z,99867.66
2019-03-31T03:08:01.442Z,99872.38
2019-03-31T03:08:32.675Z,99870.66
2019-03-31T03:09:03.929Z,99874.08
2019-03-31T03:09:35.148Z,99877.94
2019-03-31T03:10:06.375Z,99879.64
2019-03-31T03:10:37.588Z,99878.80
2019-03-31T03:11:08.803Z,99872.78
2019-03-31T03:11:40.003Z,99873.63
2019-03-31T03:12:11.215Z,99876.62
2019-03-31T03:12:42.459Z,99872.75
2019-03-31T03:13:13.673Z,99871.03
2019-03-31T03:13:44.871Z,99871.44
2019-03-31T03:14:16.130Z,99867.11
2019-03-31T03:14:47.360Z,99869.69
2019-03-31T03:15:18.571Z,99867.92
2019-03-31T03:15:49.782Z,99868.38
2019-03-31T03:16:20.989Z,99867.48
2019-03-31T03:16:52.179Z,99870.91
2019-03-31T03:17:23.398Z,99874.38
2019-03-31T03:17:54.628Z,99871.80
2019-03-31T03:18:25.860Z,99869.63
2019-03-31T03:18:57.079Z,99870.48
2019-03-31T03:19:28.340Z,99872.62
2019-03-31T03:19:59.551Z,99876.92
2019-03-31T03:20:30.767Z,99872.62
2019-03-31T03:21:01.978Z,99873.05
2019-03-31T03:21:33.194Z,99879.06
2019-03-31T03:22:04.396Z,99877.80
2019-03-31T03:22:35.619Z,99877.80
2019-03-31T03:23:06.826Z,99874.38
2019-03-31T03:23:38.038Z,99877.80
2019-03-31T03:24:09.297Z,99870.51
2019-03-31T03:24:40.480Z,99874.34
2019-03-31T03:25:11.726Z,99872.20
2019-03-31T03:25:55.729Z,99872.65
2019-03-31T03:26:16.061Z,99876.07
2019-03-31T03:26:47.270Z,99867.49
2019-03-31T03:27:18.537Z,99875.22
2019-03-31T03:27:49.758Z,99873.94
2019-03-31T03:28:20.998Z,99870.06
2019-03-31T03:28:52.231Z,99870.92
2019-03-31T03:29:23.511Z,99867.46
2019-03-31T03:30:05.465Z,99871.77
2019-03-31T03:30:36.844Z,99867.90
2019-03-31T03:31:15.018Z,99873.91
2019-03-31T03:31:41.106Z,99876.48
2019-03-31T03:32:12.306Z,99871.33
2019-03-31T03:33:11.942Z,99869.19
2019-03-31T03:33:18.175Z,99879.06
2019-03-31T03:33:49.411Z,99875.19
2019-03-31T03:34:20.655Z,99874.78
2019-03-31T03:34:51.929Z,99873.94
2019-03-31T03:35:23.154Z,99871.36
2019-03-31T03:35:54.346Z,99858.41
2019-03-31T03:36:25.554Z,99873.50
2019-03-31T03:36:56.765Z,99871.80
2019-03-31T03:37:28.049Z,99874.81
2019-03-31T03:37:59.249Z,99868.78
2019-03-31T03:38:30.487Z,99869.66
2019-03-31T03:39:01.696Z,99870.95
2019-03-31T03:39:32.915Z,99864.50
2019-03-31T03:40:04.162Z,99868.78
2019-03-31T03:40:35.375Z,99866.20
2019-03-31T03:41:06.601Z,99866.20
2019-03-31T03:41:37.830Z,99856.73
2019-03-31T03:42:09.125Z,99866.20
2019-03-31T03:42:40.357Z,99858.88
2019-03-31T03:43:11.620Z,99858.03
2019-03-31T03:43:55.013Z,99858.47
2019-03-31T03:44:15.755Z,99859.75
2019-03-31T03:44:46.972Z,99855.04
2019-03-31T03:45:18.162Z,99856.33
2019-03-31T03:45:49.391Z,99855.48
2019-03-31T03:46:20.653Z,99862.36
2019-03-31T03:46:51.863Z,99852.45
2019-03-31T03:47:23.074Z,99855.48
2019-03-31T03:47:54.295Z,99856.33
2019-03-31T03:48:25.501Z,99855.92
2019-03-31T03:48:56.847Z,99855.04
2019-03-31T03:49:28.103Z,99850.30
2019-03-31T03:49:59.280Z,99855.92
2019-03-31T03:50:30.496Z,99852.46
2019-03-31T03:51:01.714Z,99853.75
2019-03-31T03:51:32.977Z,99851.17
2019-03-31T03:52:04.183Z,99852.46
2019-03-31T03:52:35.387Z,99853.72
2019-03-31T03:53:06.601Z,99850.70
2019-03-31T03:53:37.825Z,99852.84
2019-03-31T03:54:09.023Z,99852.84
2019-03-31T03:54:40.299Z,99858.00
2019-03-31T03:55:11.485Z,99853.25
2019-03-31T03:55:42.685Z,99856.70
2019-03-31T03:56:13.884Z,99854.98
2019-03-31T03:56:45.484Z,99858.00
2019-03-31T03:57:16.677Z,99856.27
2019-03-31T03:57:47.933Z,99855.42
2019-03-31T03:58:19.137Z,99851.55
2019-03-31T03:58:50.383Z,99851.14
2019-03-31T03:59:21.551Z,99855.02
2019-03-31T03:59:52.731Z,99854.13
2019-03-31T04:00:23.907Z,99855.42
2019-03-31T04:00:55.405Z,99854.13
2019-03-31T04:01:26.610Z,99851.11
2019-03-31T04:01:57.789Z,99851.52
2019-03-31T04:02:29.001Z,99852.41
2019-03-31T04:03:00.172Z,99852.41
2019-03-31T04:03:31.396Z,99852.81
2019-03-31T04:04:02.533Z,99853.69
2019-03-31T04:04:33.694Z,99849.39
2019-03-31T04:05:04.922Z,99854.98
2019-03-31T04:05:36.142Z,99854.98
2019-03-31T04:06:07.346Z,99858.84
2019-03-31T04:06:38.480Z,99858.41
2019-03-31T04:07:09.651Z,99860.55
2019-03-31T04:07:40.814Z,99860.13
2019-03-31T04:08:11.975Z,99861.86
2019-03-31T04:08:43.134Z,99862.27
2019-03-31T04:09:14.378Z,99859.70
2019-03-31T04:09:45.534Z,99861.42
2019-03-31T04:10:16.731Z,99857.56
2019-03-31T04:10:47.929Z,99864.06
2019-03-31T04:11:21.571Z,99861.92
2019-03-31T04:11:51.990Z,99860.22
2019-03-31T04:12:23.177Z,99855.94
2019-03-31T04:12:54.397Z,99871.84
2019-03-31T04:13:25.588Z,99872.29
2019-03-31T04:13:56.739Z,99871.03
2019-03-31T04:14:27.944Z,99867.16
2019-03-31T04:14:59.113Z,99873.17
2019-03-31T04:15:30.417Z,99868.01
2019-03-31T04:16:01.580Z,99869.30
2019-03-31T04:16:32.772Z,99868.45
2019-03-31T04:17:03.947Z,99873.60
2019-03-31T04:17:35.111Z,99868.89
2019-03-31T04:18:06.279Z,99871.45
2019-03-31T04:18:37.446Z,99874.48
2019-03-31T04:19:08.647Z,99874.06
2019-03-31T04:19:39.825Z,99872.37
2019-03-31T04:20:11.019Z,99870.63
2019-03-31T04:20:42.182Z,99880.98
2019-03-31T04:21:13.371Z,99874.08
2019-03-31T04:21:44.540Z,99872.38
2019-03-31T04:22:15.767Z,99870.68
2019-03-31T04:22:46.926Z,99870.23
2019-03-31T04:23:18.145Z,99871.13
2019-03-31T04:23:49.363Z,99871.96
2019-03-31T04:24:20.564Z,99868.55
2019-03-31T04:24:51.730Z,99872.02
2019-03-31T04:25:22.905Z,99870.73
2019-03-31T04:25:54.157Z,99866.45
2019-03-31T04:26:25.357Z,99867.77
2019-03-31T04:26:56.527Z,99860.88
2019-03-31T04:27:27.689Z,99863.47
2019-03-31T04:27:58.878Z,99866.05
2019-03-31T04:28:30.058Z,99864.33
2019-03-31T04:29:01.223Z,99866.05
2019-03-31T04:29:32.440Z,99867.75
2019-03-31T04:30:03.622Z,99866.42
2019-03-31T04:30:34.811Z,99863.83
2019-03-31T04:31:05.987Z,99869.42
2019-03-31T04:31:37.199Z,99865.09
2019-03-31T04:32:08.390Z,99866.78
2019-03-31T04:32:39.561Z,99868.09
2019-03-31T04:33:10.732Z,99869.82
2019-03-31T04:33:51.300Z,99872.84
2019-03-31T04:34:14.772Z,99866.77
2019-03-31T04:34:45.962Z,99869.31
2019-03-31T04:35:17.133Z,99865.38
2019-03-31T04:35:48.307Z,99862.27
2019-03-31T04:36:19.520Z,99862.63
2019-03-31T04:36:50.710Z,99864.73
2019-03-31T04:37:21.969Z,99857.71
2019-03-31T04:37:53.128Z,99861.08
2019-03-31T04:38:24.286Z,99864.86
2019-03-31T04:38:59.896Z,99869.48
2019-03-31T04:39:28.382Z,99861.61
2019-03-31T04:39:59.629Z,99865.84
2019-03-31T04:40:30.834Z,99869.11
2019-03-31T04:41:02.033Z,99868.94
2019-03-31T04:41:33.205Z,99867.28
2019-03-31T04:42:04.377Z,99867.28
2019-03-31T04:42:35.548Z,99865.46
2019-03-31T04:43:06.715Z,99866.20
2019-03-31T04:43:37.893Z,99862.24
2019-03-31T04:44:09.086Z,99859.59
2019-03-31T04:44:40.308Z,99859.94
2019-03-31T04:45:11.495Z,99865.52
2019-03-31T04:45:43.012Z,99858.53
2019-03-31T04:46:14.208Z,99857.08
2019-03-31T04:46:45.383Z,99857.78
2019-03-31T04:47:16.626Z,99856.77
2019-03-31T04:47:47.787Z,99851.87
2019-03-31T04:48:18.955Z,99859.91
2019-03-31T04:48:50.108Z,99854.64
2019-03-31T04:49:21.280Z,99856.27
2019-03-31T04:49:52.465Z,99850.65
2019-03-31T04:50:23.675Z,99851.50
2019-03-31T04:50:54.841Z,99851.15
2019-03-31T04:51:26.011Z,99854.69
2019-03-31T04:51:57.218Z,99853.92
2019-03-31T04:52:28.378Z,99846.78
2019-03-31T04:52:59.543Z,99851.30
2019-03-31T04:53:30.751Z,99853.19
2019-03-31T04:54:01.950Z,99851.11
2019-03-31T04:54:33.129Z,99858.48
2019-03-31T04:55:04.317Z,99859.30
2019-03-31T04:55:35.473Z,99853.55
2019-03-31T04:56:06.644Z,99850.45
2019-03-31T04:56:37.883Z,99853.80
2019-03-31T04:57:09.045Z,99856.63
2019-03-31T04:57:40.262Z,99858.14
2019-03-31T04:58:11.423Z,99857.86
2019-03-31T04:58:42.591Z,99858.10
2019-03-31T04:59:13.770Z,99862.70
2019-03-31T04:59:44.929Z,99856.97
2019-03-31T05:00:16.105Z,99865.11
2019-03-31T05:00:47.281Z,99861.94
2019-03-31T05:01:18.449Z,99867.38
2019-03-31T05:01:49.615Z,99862.11
2019-03-31T05:02:20.785Z,99865.37
2019-03-31T05:02:51.997Z,99871.61
2019-03-31T05:03:23.224Z,99868.28
2019-03-31T05:04:04.680Z,99870.67
2019-03-31T05:04:27.276Z,99868.66
2019-03-31T05:04:58.446Z,99870.19
2019-03-31T05:05:29.608Z,99873.98
2019-03-31T05:06:00.792Z,99870.42
2019-03-31T05:06:31.948Z,99869.96
2019-03-31T05:07:03.147Z,99868.55
2019-03-31T05:07:34.333Z,99872.80
2019-03-31T05:08:05.503Z,99870.00
2019-03-31T05:08:36.717Z,99865.08
2019-03-31T05:09:07.956Z,99871.13
2019-03-31T05:09:39.130Z,99869.78
2019-03-31T05:10:10.299Z,99868.94
2019-03-31T05:10:41.503Z,99867.17
2019-03-31T05:11:12.675Z,99867.59
2019-03-31T05:11:43.849Z,99867.64
2019-03-31T05:12:16.913Z,99861.93
2019-03-31T05:12:47.923Z,99866.67
2019-03-31T05:13:19.106Z,99867.34
2019-03-31T05:13:50.281Z,99863.64
2019-03-31T05:14:21.450Z,99869.06
2019-03-31T05:14:52.636Z,99863.73
2019-03-31T05:15:23.845Z,99869.23
2019-03-31T05:15:55.015Z,99868.35
2019-03-31T05:16:26.185Z,99867.05
2019-03-31T05:16:57.351Z,99867.13
2019-03-31T05:17:28.528Z,99863.14
2019-03-31T05:17:59.700Z,99869.19
2019-03-31T05:18:30.858Z,99860.38
2019-03-31T05:19:02.034Z,99864.61
2019-03-31T05:19:33.199Z,99865.28
2019-03-31T05:20:04.351Z,99858.11
2019-03-31T05:20:35.587Z,99860.19
2019-03-31T05:21:06.815Z,99856.98
2019-03-31T05:21:38.025Z,99865.14
2019-03-31T05:22:09.205Z,99857.77
2019-03-31T05:22:40.382Z,99852.94
2019-03-31T05:23:11.530Z,99855.58
2019-03-31T05:23:42.767Z,99852.52
2019-03-31T05:24:13.924Z,99852.06
2019-03-31T05:24:45.116Z,99852.48
2019-03-31T05:25:16.299Z,99852.80
2019-03-31T05:25:47.513Z,99853.20
2019-03-31T05:26:18.670Z,99857.52
2019-03-31T05:26:49.845Z,99854.39
2019-03-31T05:27:20.996Z,99856.95
2019-03-31T05:27:52.175Z,99855.09
2019-03-31T05:28:23.360Z,99852.03
2019-03-31T05:28:54.577Z,99858.57
2019-03-31T05:29:25.762Z,99857.27
2019-03-31T05:29:56.945Z,99855.62
2019-03-31T05:30:28.112Z,99854.78
2019-03-31T05:30:59.378Z,99854.35
2019-03-31T05:31:30.537Z,99856.43
2019-03-31T05:32:01.716Z,99848.94
2019-03-31T05:32:32.901Z,99854.56
2019-03-31T05:33:04.067Z,99850.69
2019-03-31T05:33:35.354Z,99851.47
2019-03-31T05:34:18.543Z,99856.56
2019-03-31T05:34:39.442Z,99855.72
2019-03-31T05:35:10.621Z,99855.83
2019-03-31T05:35:41.807Z,99855.02
2019-03-31T05:36:13.023Z,99854.14
2019-03-31T05:36:44.193Z,99858.28
2019-03-31T05:37:15.420Z,99858.55
2019-03-31T05:37:51.211Z,99856.75
2019-03-31T05:38:19.463Z,99858.36
2019-03-31T05:38:50.622Z,99862.27
2019-03-31T05:39:21.801Z,99858.74
2019-03-31T05:39:52.972Z,99857.83
2019-03-31T05:40:24.137Z,99859.44
2019-03-31T05:40:55.315Z,99859.89
2019-03-31T05:41:26.586Z,99853.30
2019-03-31T05:41:57.784Z,99857.59
2019-03-31T05:42:28.951Z,99850.08
2019-03-31T05:43:00.112Z,99854.14
2019-03-31T05:43:31.296Z,99853.88
2019-03-31T05:44:05.854Z,99859.94
2019-03-31T05:44:35.365Z,99860.05
2019-03-31T05:45:06.524Z,99860.39
2019-03-31T05:45:37.681Z,99855.61
2019-03-31T05:46:08.863Z,99858.91
2019-03-31T05:46:40.031Z,99862.27
2019-03-31T05:47:11.244Z,99857.75
2019-03-31T05:47:42.410Z,99861.12
2019-03-31T05:48:13.595Z,99856.70
2019-03-31T05:48:44.812Z,99860.11
2019-03-31T05:49:15.976Z,99859.03
2019-03-31T05:49:47.137Z,99862.89
2019-03-31T05:50:18.336Z,99860.67
2019-03-31T05:50:49.485Z,99866.76
2019-03-31T05:51:20.647Z,99862.64
2019-03-31T05:51:51.827Z,99864.20
2019-03-31T05:52:23.041Z,99861.30
2019-03-31T05:52:54.202Z,99861.55
2019-03-31T05:53:25.387Z,99866.17
2019-03-31T05:53:56.546Z,99864.78
2019-03-31T05:54:27.738Z,99866.21
2019-03-31T05:54:58.891Z,99865.88
2019-03-31T05:55:30.103Z,99860.80
2019-03-31T05:56:01.272Z,99860.72
2019-03-31T05:56:32.434Z,99858.95
2019-03-31T05:57:03.610Z,99860.08
2019-03-31T05:57:34.775Z,99857.05
2019-03-31T05:58:05.932Z,99851.08
2019-03-31T05:58:37.118Z,99852.46
2019-03-31T05:59:08.329Z,99856.83
2019-03-31T05:59:39.522Z,99853.38
2019-03-31T06:00:10.733Z,99854.34
2019-03-31T06:00:41.896Z,99854.34
2019-03-31T06:01:13.151Z,99862.03
2019-03-31T06:01:44.319Z,99857.09
2019-03-31T06:02:15.494Z,99855.33
2019-03-31T06:02:46.656Z,99862.38
2019-03-31T06:03:17.842Z,99859.13
2019-03-31T06:03:49.003Z,99867.59
2019-03-31T06:04:32.655Z,99858.06
2019-03-31T06:04:53.115Z,99864.22
2019-03-31T06:05:24.277Z,99858.09
2019-03-31T06:05:55.443Z,99860.84
2019-03-31T06:06:26.601Z,99859.53
2019-03-31T06:06:57.764Z,99858.57
2019-03-31T06:07:28.928Z,99860.45